Time;durP1;ratioP1;P1;durP2;ratioP2;P2;SDS_P1;SDS_P2;PMS_P1;PMS_P2;Temp;Humidity;BMP_temperature;BMP_pressure;BME280_temperature;BME280_humidity;BME280_pressure;Samples;Min_cycle;Max_cycle;Signal;HPM_P1;HPM_P2
2023/08/16 00:09:39;;;;;;;5.85;2.85;;;;;;;;;;21005149;28;20041;-63
2023/08/16 00:19:42;;;;;;;3.58;2.40;;;;;;;;;;21005522;28;20609;-62
2023/08/16 00:29:43;;;;;;;4.63;2.60;;;;;;;;;;21004778;28;20052;-61
2023/08/16 00:39:44;;;;;;;8.45;2.50;;;;;;;;;;21003674;28;20070;-62
2023/08/16 00:49:45;;;;;;;3.72;2.63;;;;;;;;;;21001772;28;20075;-62
2023/08/16 00:59:46;;;;;;;5.45;2.92;;;;;;;;;;21001828;28;20115;-62
2023/08/16 01:09:48;;;;;;;6.72;3.30;;;;;;;;;;21000882;28;20047;-62
2023/08/16 01:19:50;;;;;;;5.13;3.78;;;;;;;;;;20999884;28;20075;-62
2023/08/16 01:29:52;;;;;;;4.60;3.33;;;;;;;;;;20999083;28;20043;-62
2023/08/16 01:39:55;;;;;;;5.60;3.50;;;;;;;;;;20998553;28;20051;-63
2023/08/16 01:49:56;;;;;;;5.28;3.08;;;;;;;;;;20996556;28;20059;-62
2023/08/16 01:59:57;;;;;;;7.10;3.10;;;;;;;;;;20997327;28;20062;-63
2023/08/16 02:09:58;;;;;;;5.28;2.70;;;;;;;;;;20995766;28;20051;-61
2023/08/16 02:19:59;;;;;;;8.05;3.75;;;;;;;;;;20996248;28;20044;-62
2023/08/16 02:30:00;;;;;;;5.90;3.10;;;;;;;;;;20998128;28;20041;-62
2023/08/16 02:40:03;;;;;;;10.43;2.97;;;;;;;;;;21013000;28;20041;-62
2023/08/16 02:50:05;;;;;;;8.85;2.83;;;;;;;;;;21010350;28;20048;-62
2023/08/16 03:00:09;;;;;;;7.95;3.22;;;;;;;;;;21011260;28;20044;-62
2023/08/16 03:10:10;;;;;;;8.80;3.13;;;;;;;;;;21008965;28;20040;-62
2023/08/16 03:20:12;;;;;;;5.65;2.80;;;;;;;;;;21009109;28;20052;-62
2023/08/16 03:30:13;;;;;;;5.95;3.45;;;;;;;;;;21007981;28;20507;-62
2023/08/16 03:40:14;;;;;;;6.38;2.72;;;;;;;;;;21007094;28;20047;-61
2023/08/16 03:50:16;;;;;;;6.85;2.95;;;;;;;;;;21007106;28;20513;-62
2023/08/16 04:00:17;;;;;;;6.30;3.53;;;;;;;;;;21006988;28;20044;-62
2023/08/16 04:10:18;;;;;;;4.82;3.13;;;;;;;;;;21004783;28;20055;-62
2023/08/16 04:20:19;;;;;;;4.63;2.90;;;;;;;;;;21004003;28;20048;-62
2023/08/16 04:30:20;;;;;;;5.00;3.05;;;;;;;;;;21004406;28;20397;-62
2023/08/16 04:40:21;;;;;;;5.38;3.28;;;;;;;;;;21004111;28;20119;-62
2023/08/16 04:50:22;;;;;;;3.88;2.92;;;;;;;;;;21002449;28;20041;-62
2023/08/16 05:00:24;;;;;;;3.10;2.10;;;;;;;;;;21001885;28;20115;-62
2023/08/16 05:10:26;;;;;;;6.93;2.70;;;;;;;;;;21001594;28;20044;-63
2023/08/16 05:20:27;;;;;;;4.95;2.63;;;;;;;;;;20999359;28;20095;-62
2023/08/16 05:30:28;;;;;;;6.28;2.92;;;;;;;;;;20999666;28;20105;-61
2023/08/16 05:40:30;;;;;;;8.02;3.03;;;;;;;;;;20998952;28;20044;-62
2023/08/16 05:50:31;;;;;;;5.15;2.50;;;;;;;;;;20997687;28;20053;-61
2023/08/16 06:00:32;;;;;;;6.45;2.70;;;;;;;;;;20997658;28;20072;-62
2023/08/16 06:10:33;;;;;;;5.45;3.03;;;;;;;;;;20996297;28;20075;-63
2023/08/16 06:20:34;;;;;;;6.45;3.03;;;;;;;;;;20997211;28;20056;-62
2023/08/16 06:30:35;;;;;;;7.43;3.33;;;;;;;;;;20996181;28;20037;-62
2023/08/16 06:40:36;;;;;;;10.02;3.08;;;;;;;;;;20995607;28;20040;-62
2023/08/16 06:50:37;;;;;;;10.65;3.75;;;;;;;;;;20994464;28;20209;-62
2023/08/16 07:00:42;;;;;;;8.27;3.15;;;;;;;;;;20995214;28;20045;-62
2023/08/16 07:10:43;;;;;;;14.40;4.15;;;;;;;;;;20994530;28;20067;-63
2023/08/16 07:20:44;;;;;;;8.95;3.85;;;;;;;;;;21004463;28;20041;-63
2023/08/16 07:30:45;;;;;;;9.95;2.80;;;;;;;;;;21007714;28;20367;-62
2023/08/16 07:40:47;;;;;;;11.38;3.08;;;;;;;;;;21008290;28;20486;-63
2023/08/16 07:50:51;;;;;;;10.52;3.55;;;;;;;;;;21007334;28;20433;-63
2023/08/16 08:00:54;;;;;;;12.15;3.20;;;;;;;;;;21005433;28;20062;-61
2023/08/16 08:10:55;;;;;;;12.38;3.17;;;;;;;;;;21004743;28;20047;-62
2023/08/16 08:20:59;;;;;;;8.73;3.58;;;;;;;;;;21003938;28;20052;-62
2023/08/16 08:31:03;;;;;;;13.75;4.53;;;;;;;;;;21002360;28;20048;-63
2023/08/16 08:41:06;;;;;;;14.07;3.08;;;;;;;;;;21004070;28;20432;-63
2023/08/16 08:51:07;;;;;;;10.40;3.00;;;;;;;;;;21001523;28;20056;-63
2023/08/16 09:01:09;;;;;;;14.00;3.85;;;;;;;;;;21000900;28;20123;-62
2023/08/16 09:11:10;;;;;;;8.90;3.22;;;;;;;;;;21001295;28;20131;-62
2023/08/16 09:21:14;;;;;;;11.45;2.92;;;;;;;;;;21000355;28;20045;-62
2023/08/16 09:31:15;;;;;;;12.23;3.38;;;;;;;;;;20999394;28;20041;-63
2023/08/16 09:41:18;;;;;;;10.50;3.63;;;;;;;;;;20998298;28;20041;-63
2023/08/16 09:51:19;;;;;;;8.30;3.22;;;;;;;;;;20997417;28;20579;-62
2023/08/16 10:01:21;;;;;;;11.10;4.15;;;;;;;;;;20997435;28;20091;-62
2023/08/16 10:11:23;;;;;;;6.82;3.00;;;;;;;;;;20996749;28;20037;-63
2023/08/16 10:21:25;;;;;;;9.65;2.95;;;;;;;;;;20996606;28;20127;-63
2023/08/16 10:31:29;;;;;;;5.13;3.58;;;;;;;;;;20994936;28;20128;-63
2023/08/16 10:41:40;;;;;;;6.00;2.88;;;;;;;;;;20995995;28;20481;-62
2023/08/16 10:51:51;;;;;;;13.30;3.45;;;;;;;;;;20999190;28;20056;-62
2023/08/16 11:01:52;;;;;;;7.25;3.67;;;;;;;;;;21011535;28;20044;-64
2023/08/16 11:11:53;;;;;;;11.13;3.60;;;;;;;;;;21010490;28;20037;-62
2023/08/16 11:21:56;;;;;;;6.55;3.00;;;;;;;;;;21008921;28;20056;-63
2023/08/16 11:31:57;;;;;;;8.18;2.35;;;;;;;;;;21009023;28;20052;-64
2023/08/16 11:41:59;;;;;;;7.68;2.60;;;;;;;;;;21008910;28;20123;-63
2023/08/16 11:52:00;;;;;;;6.82;2.67;;;;;;;;;;21007459;28;20052;-63
2023/08/16 12:02:08;;;;;;;4.35;3.20;;;;;;;;;;21005634;28;20379;-63
2023/08/16 12:12:12;;;;;;;12.38;2.50;;;;;;;;;;21006961;28;20041;-63
2023/08/16 12:22:13;;;;;;;4.70;2.40;;;;;;;;;;21005426;28;20446;-63
2023/08/16 12:32:14;;;;;;;5.13;2.63;;;;;;;;;;21004143;28;20099;-63
2023/08/16 12:42:15;;;;;;;5.97;2.15;;;;;;;;;;21003336;28;20055;-63
2023/08/16 12:52:16;;;;;;;4.97;2.88;;;;;;;;;;21001267;28;20044;-64
2023/08/16 13:02:17;;;;;;;3.65;1.90;;;;;;;;;;21000271;28;20048;-63
2023/08/16 13:12:19;;;;;;;7.10;2.10;;;;;;;;;;20999714;28;20040;-63
2023/08/16 13:22:21;;;;;;;6.30;2.08;;;;;;;;;;20999750;28;20409;-64
2023/08/16 13:32:22;;;;;;;3.60;1.95;;;;;;;;;;20999394;28;20120;-64
2023/08/16 13:42:23;;;;;;;7.07;1.50;;;;;;;;;;20997226;28;20055;-64
2023/08/16 13:52:24;;;;;;;3.53;1.85;;;;;;;;;;20996969;28;20522;-63
2023/08/16 14:02:25;;;;;;;5.88;1.77;;;;;;;;;;20996905;28;20494;-64
2023/08/16 14:12:28;;;;;;;6.78;1.58;;;;;;;;;;20995582;28;20048;-63
2023/08/16 14:22:29;;;;;;;4.15;1.38;;;;;;;;;;20996729;28;20512;-63
2023/08/16 14:32:30;;;;;;;4.78;1.38;;;;;;;;;;20995128;28;20501;-63
2023/08/16 14:42:31;;;;;;;2.28;1.25;;;;;;;;;;20994046;28;20045;-63
2023/08/16 14:52:32;;;;;;;3.17;1.77;;;;;;;;;;20993981;28;20052;-63
2023/08/16 15:02:33;;;;;;;3.53;1.45;;;;;;;;;;20994406;28;20555;-63
2023/08/16 15:12:35;;;;;;;4.35;1.10;;;;;;;;;;20992728;28;20044;-62
2023/08/16 15:22:36;;;;;;;3.58;1.88;;;;;;;;;;20993880;28;20486;-63
2023/08/16 15:32:37;;;;;;;4.13;1.50;;;;;;;;;;20993840;28;20040;-63
2023/08/16 15:42:38;;;;;;;2.70;1.33;;;;;;;;;;21003944;28;20052;-63
2023/08/16 15:52:40;;;;;;;1.63;1.30;;;;;;;;;;21007189;28;20056;-63
2023/08/16 16:02:41;;;;;;;2.92;1.95;;;;;;;;;;21007041;28;20086;-63
2023/08/16 16:12:42;;;;;;;2.25;1.42;;;;;;;;;;21006257;28;20047;-62
2023/08/16 16:22:43;;;;;;;2.35;1.50;;;;;;;;;;21004431;28;20088;-63
2023/08/16 16:32:46;;;;;;;5.20;2.05;;;;;;;;;;21004767;28;20051;-63
2023/08/16 16:42:47;;;;;;;2.72;1.63;;;;;;;;;;21003780;28;20055;-64
2023/08/16 16:52:50;;;;;;;3.72;1.52;;;;;;;;;;21001071;28;20063;-63
2023/08/16 17:02:51;;;;;;;2.25;1.55;;;;;;;;;;21002141;28;20050;-62
2023/08/16 17:12:52;;;;;;;1.67;1.30;;;;;;;;;;21001041;28;20036;-63
2023/08/16 17:22:55;;;;;;;6.65;5.30;;;;;;;;;;21000565;28;20128;-63
2023/08/16 17:32:56;;;;;;;6.30;2.10;;;;;;;;;;20999345;28;20100;-64
2023/08/16 17:42:57;;;;;;;2.90;1.40;;;;;;;;;;20998775;28;20040;-63
2023/08/16 17:52:58;;;;;;;3.33;1.30;;;;;;;;;;20998009;28;20053;-63
2023/08/16 18:02:59;;;;;;;4.30;1.42;;;;;;;;;;20995804;28;20045;-63
2023/08/16 18:13:00;;;;;;;3.20;1.55;;;;;;;;;;20996786;28;20040;-64
2023/08/16 18:23:01;;;;;;;7.95;3.63;;;;;;;;;;20996345;28;20052;-63
2023/08/16 18:33:03;;;;;;;2.22;1.50;;;;;;;;;;20995689;28;20044;-63
2023/08/16 18:43:04;;;;;;;5.35;1.70;;;;;;;;;;20995049;28;20040;-62
2023/08/16 18:53:05;;;;;;;2.78;1.40;;;;;;;;;;20995576;28;20389;-62
2023/08/16 19:03:06;;;;;;;3.63;1.65;;;;;;;;;;20993598;28;20040;-63
2023/08/16 19:13:07;;;;;;;2.63;1.90;;;;;;;;;;20997880;28;20474;-63
2023/08/16 19:23:09;;;;;;;3.17;1.65;;;;;;;;;;21009665;28;20084;-64
2023/08/16 19:33:10;;;;;;;3.97;1.95;;;;;;;;;;21008922;28;20473;-63
2023/08/16 19:43:12;;;;;;;9.85;3.83;;;;;;;;;;21008255;28;20548;-62
2023/08/16 19:53:13;;;;;;;5.93;2.05;;;;;;;;;;21006989;28;20532;-63
2023/08/16 20:03:14;;;;;;;4.25;2.28;;;;;;;;;;21006944;28;20048;-63
2023/08/16 20:13:15;;;;;;;6.97;2.30;;;;;;;;;;21006537;28;20051;-63
2023/08/16 20:23:16;;;;;;;5.72;2.45;;;;;;;;;;21004657;28;20052;-64
2023/08/16 20:33:17;;;;;;;4.35;2.58;;;;;;;;;;21004301;28;20394;-64
2023/08/16 20:43:20;;;;;;;3.05;2.25;;;;;;;;;;21003021;28;20044;-62
2023/08/16 20:53:21;;;;;;;5.50;2.63;;;;;;;;;;21002111;28;20060;-63
2023/08/16 21:03:22;;;;;;;3.45;2.35;;;;;;;;;;21001308;28;20043;-63
2023/08/16 21:13:23;;;;;;;5.47;2.00;;;;;;;;;;21001736;28;20036;-63
2023/08/16 21:23:24;;;;;;;4.75;1.90;;;;;;;;;;20999562;28;20052;-63
2023/08/16 21:33:25;;;;;;;3.38;2.15;;;;;;;;;;20999825;28;20045;-64
2023/08/16 21:43:26;;;;;;;4.85;1.88;;;;;;;;;;20997551;28;20150;-63
2023/08/16 21:53:28;;;;;;;3.55;1.90;;;;;;;;;;20995894;28;20095;-63
2023/08/16 22:03:29;;;;;;;2.70;1.83;;;;;;;;;;20997232;28;20055;-63
2023/08/16 22:13:30;;;;;;;4.18;2.15;;;;;;;;;;20997307;28;20036;-62
2023/08/16 22:23:31;;;;;;;9.35;2.00;;;;;;;;;;20996543;28;20049;-63
2023/08/16 22:33:32;;;;;;;4.95;2.35;;;;;;;;;;20994299;28;20047;-63
2023/08/16 22:43:34;;;;;;;2.80;1.95;;;;;;;;;;20995892;28;20044;-63
2023/08/16 22:53:35;;;;;;;4.75;2.00;;;;;;;;;;21008220;28;20159;-63
2023/08/16 23:03:37;;;;;;;3.22;2.15;;;;;;;;;;21012360;28;20078;-63
2023/08/16 23:13:38;;;;;;;4.53;1.98;;;;;;;;;;21011421;28;20461;-63
2023/08/16 23:23:39;;;;;;;3.42;2.22;;;;;;;;;;21010888;28;20056;-62
2023/08/16 23:33:41;;;;;;;4.75;1.83;;;;;;;;;;21010029;28;20379;-63
2023/08/16 23:43:42;;;;;;;3.80;2.60;;;;;;;;;;21009343;28;20401;-63
2023/08/16 23:53:43;;;;;;;7.38;3.00;;;;;;;;;;21007385;28;20117;-63
